createdAt,value
2023-03-13T00:01:35.463Z,48.38
2023-03-13T00:04:05.022Z,48.58
2023-03-13T00:06:37.563Z,48.49
2023-03-13T00:09:08.998Z,49.34
2023-03-13T00:11:36.158Z,50.26
2023-03-13T00:14:04.441Z,51.28
2023-03-13T00:16:31.516Z,51.66
2023-03-13T00:18:59.020Z,50.43
2023-03-13T00:21:29.469Z,50.84
2023-03-13T00:23:57.885Z,50.36
2023-03-13T00:26:26.673Z,50.88
2023-03-13T00:28:53.907Z,50.42
2023-03-13T00:31:24.764Z,51.15
2023-03-13T00:33:54.183Z,50.77
2023-03-13T00:36:20.578Z,51.11
2023-03-13T00:38:47.759Z,52.21
2023-03-13T00:41:17.801Z,51.39
2023-03-13T00:43:45.750Z,51.78
2023-03-13T00:46:14.335Z,52.24
2023-03-13T00:48:41.581Z,51.66
2023-03-13T00:51:12.002Z,52.82
2023-03-13T00:53:38.894Z,53.27
2023-03-13T00:56:10.830Z,53.60
2023-03-13T00:58:42.496Z,53.22
2023-03-13T01:01:28.590Z,53.65
2023-03-13T01:04:05.204Z,53.90
2023-03-13T01:06:36.029Z,54.29
2023-03-13T01:09:10.835Z,54.03
2023-03-13T01:11:39.607Z,54.08
2023-03-13T01:14:12.923Z,54.54
2023-03-13T01:16:40.589Z,54.53
2023-03-13T01:19:14.001Z,56.20
2023-03-13T01:21:44.731Z,55.56
2023-03-13T01:24:13.979Z,55.27
2023-03-13T01:26:40.781Z,55.70
2023-03-13T01:29:07.372Z,55.26
2023-03-13T01:31:35.810Z,55.69
2023-03-13T01:34:05.169Z,55.22
2023-03-13T01:36:32.008Z,55.32
2023-03-13T01:39:00.789Z,55.85
2023-03-13T01:41:31.087Z,55.50
2023-03-13T01:44:01.082Z,55.38
2023-03-13T01:46:29.696Z,55.23
2023-03-13T01:49:07.892Z,55.58
2023-03-13T01:51:37.129Z,54.89
2023-03-13T01:54:06.832Z,55.29
2023-03-13T01:56:56.974Z,55.03
2023-03-13T01:59:30.493Z,55.19
2023-03-13T02:02:03.973Z,55.32
2023-03-13T02:04:37.339Z,55.39
2023-03-13T02:07:23.519Z,55.67
2023-03-13T02:09:54.141Z,55.52
2023-03-13T02:12:37.840Z,55.96
2023-03-13T02:15:15.143Z,55.88
2023-03-13T02:17:46.043Z,54.78
2023-03-13T02:20:16.903Z,55.51
2023-03-13T02:23:05.577Z,56.56
2023-03-13T02:25:50.451Z,55.04
2023-03-13T02:28:33.376Z,55.40
2023-03-13T02:31:03.823Z,56.02
2023-03-13T02:33:39.033Z,55.82
2023-03-13T02:36:07.100Z,56.18
2023-03-13T02:38:47.595Z,55.67
2023-03-13T02:41:19.154Z,55.61
2023-03-13T02:43:45.793Z,56.24
2023-03-13T02:46:22.045Z,56.64
2023-03-13T02:48:54.142Z,56.80
2023-03-13T02:51:25.681Z,57.39
2023-03-13T02:53:58.631Z,57.78
2023-03-13T02:56:33.963Z,58.50
2023-03-13T02:59:05.032Z,58.69
2023-03-13T03:01:31.609Z,58.42
2023-03-13T03:03:58.249Z,59.16
2023-03-13T03:06:27.251Z,58.57
2023-03-13T03:08:53.937Z,58.15
2023-03-13T03:11:20.594Z,58.44
2023-03-13T03:13:47.197Z,58.82
2023-03-13T03:16:21.280Z,58.67
2023-03-13T03:18:50.068Z,59.36
2023-03-13T03:21:19.051Z,59.21
2023-03-13T03:23:45.761Z,59.27
2023-03-13T03:26:14.687Z,59.40
2023-03-13T03:28:43.524Z,59.68
2023-03-13T03:31:16.376Z,59.77
2023-03-13T03:33:46.950Z,59.53
2023-03-13T03:36:16.918Z,59.67
2023-03-13T03:38:46.743Z,60.10
2023-03-13T03:41:14.316Z,60.79
2023-03-13T03:43:41.154Z,60.96
2023-03-13T03:46:12.509Z,61.39
2023-03-13T03:48:41.671Z,60.78
2023-03-13T03:51:10.472Z,61.37
2023-03-13T03:53:37.157Z,61.38
2023-03-13T03:56:07.009Z,61.06
2023-03-13T03:58:33.724Z,61.10
2023-03-13T04:01:02.944Z,61.40
2023-03-13T04:03:32.147Z,62.61
2023-03-13T04:06:01.808Z,61.72
2023-03-13T04:08:28.498Z,61.81
2023-03-13T04:10:55.056Z,62.08
2023-03-13T04:13:21.711Z,61.05
2023-03-13T04:15:49.053Z,61.14
2023-03-13T04:18:16.710Z,62.59
2023-03-13T04:20:46.773Z,61.74
2023-03-13T04:23:13.438Z,61.65
2023-03-13T04:25:40.052Z,62.28
2023-03-13T04:28:06.856Z,61.91
2023-03-13T04:30:33.503Z,61.59
2023-03-13T04:33:03.677Z,60.98
2023-03-13T04:35:30.539Z,60.60
2023-03-13T04:37:57.112Z,60.00
2023-03-13T04:40:23.918Z,61.05
2023-03-13T04:42:52.682Z,60.88
2023-03-13T04:45:19.416Z,61.10
2023-03-13T04:47:51.433Z,60.60
2023-03-13T04:50:18.244Z,60.09
2023-03-13T04:52:44.837Z,60.78
2023-03-13T04:55:11.479Z,59.37
2023-03-13T04:57:40.234Z,60.29
2023-03-13T05:00:08.250Z,59.72
2023-03-13T05:02:37.388Z,60.55
2023-03-13T05:05:08.593Z,60.88
2023-03-13T05:07:35.381Z,61.04
2023-03-13T05:10:01.985Z,60.92
2023-03-13T05:12:30.926Z,60.37
2023-03-13T05:14:59.866Z,59.82
2023-03-13T05:17:28.716Z,59.47
2023-03-13T05:19:57.498Z,59.19
2023-03-13T05:22:26.294Z,60.07
2023-03-13T05:24:55.501Z,59.50
2023-03-13T05:27:22.113Z,58.56
2023-03-13T05:29:48.738Z,57.46
2023-03-13T05:32:15.382Z,57.02
2023-03-13T05:34:42.124Z,57.16
2023-03-13T05:37:08.739Z,57.52
2023-03-13T05:39:35.426Z,57.89
2023-03-13T05:42:02.055Z,58.52
2023-03-13T05:44:28.753Z,58.21
2023-03-13T05:46:55.574Z,57.72
2023-03-13T05:49:22.227Z,58.38
2023-03-13T05:51:48.834Z,57.59
2023-03-13T05:54:15.743Z,56.61
2023-03-13T05:56:45.048Z,58.61
2023-03-13T05:59:13.870Z,58.83
2023-03-13T06:01:42.877Z,57.96
2023-03-13T06:04:12.055Z,58.05
2023-03-13T06:06:41.952Z,58.51
2023-03-13T06:09:08.618Z,58.09
2023-03-13T06:11:38.213Z,57.34
2023-03-13T06:14:04.847Z,57.23
2023-03-13T06:16:34.227Z,56.43
2023-03-13T06:19:01.207Z,57.42
2023-03-13T06:21:28.406Z,57.46
2023-03-13T06:23:58.190Z,58.35
2023-03-13T06:26:27.214Z,57.37
2023-03-13T06:28:56.501Z,58.48
2023-03-13T06:31:23.272Z,57.56
2023-03-13T06:33:56.399Z,58.60
2023-03-13T06:36:25.661Z,58.68
2023-03-13T06:38:52.169Z,59.48
2023-03-13T06:41:19.131Z,58.59
2023-03-13T06:43:45.799Z,58.53
2023-03-13T06:46:24.718Z,58.19
2023-03-13T06:48:51.793Z,58.29
2023-03-13T06:51:26.259Z,58.61
2023-03-13T06:53:57.572Z,57.22
2023-03-13T06:56:24.377Z,57.88
2023-03-13T06:58:53.765Z,58.95
2023-03-13T07:01:23.064Z,58.51
2023-03-13T07:03:49.888Z,57.99
2023-03-13T07:06:17.276Z,58.43
2023-03-13T07:08:47.131Z,56.51
2023-03-13T07:11:16.594Z,56.84
2023-03-13T07:13:43.162Z,56.48
2023-03-13T07:16:12.731Z,56.01
2023-03-13T07:18:42.016Z,55.75
2023-03-13T07:21:09.928Z,56.00
2023-03-13T07:23:38.673Z,55.31
2023-03-13T07:26:11.368Z,55.42
2023-03-13T07:28:43.644Z,56.18
2023-03-13T07:31:21.893Z,53.87
2023-03-13T07:33:52.450Z,54.58
2023-03-13T07:36:21.431Z,54.42
2023-03-13T07:38:49.181Z,53.73
2023-03-13T07:41:16.143Z,53.17
2023-03-13T07:43:45.729Z,52.50
2023-03-13T07:46:15.872Z,51.43
2023-03-13T07:48:43.403Z,51.11
2023-03-13T07:51:18.310Z,50.74
2023-03-13T07:53:48.463Z,50.18
2023-03-13T07:56:19.821Z,50.26
2023-03-13T07:58:46.624Z,50.58
2023-03-13T08:01:17.141Z,48.80
2023-03-13T08:03:49.303Z,49.36
2023-03-13T08:06:23.385Z,49.94
2023-03-13T08:08:51.423Z,49.28
2023-03-13T08:11:28.437Z,48.25
2023-03-13T08:13:56.626Z,46.29
2023-03-13T08:16:32.374Z,47.57
2023-03-13T08:19:05.965Z,48.26
2023-03-13T08:21:37.077Z,48.07
2023-03-13T08:24:07.372Z,47.63
2023-03-13T08:26:36.019Z,49.58
2023-03-13T08:29:06.551Z,46.64
2023-03-13T08:31:47.979Z,45.46
2023-03-13T08:34:16.170Z,48.26
2023-03-13T08:36:42.908Z,46.30
2023-03-13T08:39:12.478Z,46.24
2023-03-13T08:41:40.832Z,46.68
2023-03-13T08:44:12.826Z,46.68
2023-03-13T08:46:42.096Z,46.20
2023-03-13T08:49:12.281Z,46.33
2023-03-13T08:51:39.564Z,45.54
2023-03-13T08:54:08.465Z,45.18
2023-03-13T08:56:37.375Z,44.63
2023-03-13T08:59:06.388Z,43.93
2023-03-13T09:01:38.376Z,42.77
2023-03-13T09:04:08.942Z,43.85
2023-03-13T09:06:37.481Z,43.59
2023-03-13T09:09:05.803Z,44.35
2023-03-13T09:15:19.718Z,42.64
2023-03-13T09:17:48.692Z,41.94
2023-03-13T09:20:15.392Z,41.06
2023-03-13T09:22:42.012Z,41.24
2023-03-13T09:25:11.615Z,40.00
2023-03-13T09:27:43.579Z,39.90
2023-03-13T09:30:13.337Z,40.16
2023-03-13T09:32:40.139Z,41.23
2023-03-13T09:35:07.053Z,40.44
2023-03-13T09:37:33.661Z,40.39
2023-03-13T09:40:01.167Z,38.10
2023-03-13T09:42:43.166Z,38.67
2023-03-13T09:45:17.983Z,39.08
2023-03-13T09:47:54.904Z,37.48
2023-03-13T09:50:33.370Z,37.73
2023-03-13T09:53:07.597Z,38.51
2023-03-13T09:55:38.410Z,37.88
2023-03-13T09:58:13.401Z,37.22
2023-03-13T10:00:42.083Z,36.96
2023-03-13T10:03:11.551Z,36.67
2023-03-13T10:05:50.058Z,36.43
2023-03-13T10:08:53.408Z,36.19
2023-03-13T10:12:06.596Z,37.70
2023-03-13T10:14:42.647Z,36.19
2023-03-13T10:20:59.859Z,35.46
2023-03-13T10:23:41.354Z,35.25
2023-03-13T10:26:21.883Z,34.48
2023-03-13T10:28:53.621Z,35.35
2023-03-13T10:31:37.731Z,35.01
2023-03-13T10:34:14.355Z,35.71
2023-03-13T10:36:52.256Z,34.68
2023-03-13T10:39:22.063Z,35.85
2023-03-13T10:42:38.714Z,35.54
2023-03-13T10:45:08.576Z,35.11
2023-03-13T10:47:37.989Z,34.12
2023-03-13T10:50:05.138Z,35.56
2023-03-13T10:52:34.007Z,33.14
2023-03-13T10:55:04.553Z,33.05
2023-03-13T10:57:44.594Z,33.42
2023-03-13T11:00:39.178Z,34.09
2023-03-13T11:03:17.013Z,35.32
2023-03-13T11:06:07.858Z,33.87
2023-03-13T11:08:36.552Z,34.09
2023-03-13T11:11:19.553Z,33.59
2023-03-13T11:13:46.916Z,32.95
2023-03-13T11:16:29.964Z,33.15
2023-03-13T11:18:59.672Z,34.11
2023-03-13T11:29:02.868Z,33.82
2023-03-13T11:32:07.370Z,33.76
2023-03-13T11:34:46.478Z,33.95
2023-03-13T11:37:28.412Z,32.97
2023-03-13T11:40:54.836Z,33.09
2023-03-13T11:44:03.016Z,32.28
2023-03-13T11:47:06.912Z,32.99
2023-03-13T11:50:11.929Z,33.86
2023-03-13T11:52:55.523Z,34.03
2023-03-13T11:55:27.841Z,33.02
2023-03-13T11:58:31.301Z,33.03
2023-03-13T12:01:27.257Z,34.13
2023-03-13T12:04:04.170Z,34.42
2023-03-13T12:06:35.080Z,32.38
2023-03-13T12:09:14.586Z,33.43
2023-03-13T12:12:15.434Z,33.14
2023-03-13T12:15:01.944Z,32.89
2023-03-13T12:21:49.891Z,32.95
2023-03-13T12:24:41.616Z,33.42
2023-03-13T12:27:38.052Z,33.50
2023-03-13T12:30:42.137Z,32.49
2023-03-13T12:33:44.295Z,33.04
2023-03-13T12:36:20.595Z,32.22
2023-03-13T12:39:27.600Z,32.75
2023-03-13T12:42:22.047Z,32.21
2023-03-13T12:45:00.239Z,32.71
2023-03-13T12:47:55.353Z,33.14
2023-03-13T12:50:36.836Z,32.62
2023-03-13T12:53:21.948Z,32.51
2023-03-13T12:55:52.776Z,32.43
2023-03-13T12:58:38.270Z,32.18
2023-03-13T13:01:52.463Z,31.94
2023-03-13T13:04:34.713Z,33.14
2023-03-13T13:07:30.882Z,32.02
2023-03-13T13:10:12.011Z,32.64
2023-03-13T13:12:39.838Z,31.89
2023-03-13T13:15:28.543Z,32.39
2023-03-13T13:18:35.702Z,32.53
2023-03-13T13:21:05.029Z,33.22
2023-03-13T13:23:34.481Z,33.16
2023-03-13T13:26:37.019Z,34.21
2023-03-13T13:29:15.054Z,32.91
2023-03-13T13:31:46.228Z,32.62
2023-03-13T13:34:48.994Z,32.76
2023-03-13T13:37:41.599Z,33.42
2023-03-13T13:40:22.894Z,33.03
2023-03-13T13:43:03.195Z,33.83
2023-03-13T13:45:33.750Z,33.75
2023-03-13T13:48:43.101Z,34.24
2023-03-13T13:51:24.015Z,34.20
2023-03-13T13:53:54.883Z,33.67
2023-03-13T13:57:02.356Z,34.29
2023-03-13T14:03:49.273Z,33.87
2023-03-13T14:06:24.808Z,33.83
2023-03-13T14:08:56.223Z,34.33
2023-03-13T14:11:39.200Z,34.89
2023-03-13T14:14:20.885Z,34.65
2023-03-13T14:16:59.494Z,34.64
2023-03-13T14:22:22.793Z,34.44
2023-03-13T14:25:22.447Z,35.07
2023-03-13T14:27:52.735Z,34.85
2023-03-13T14:30:59.142Z,35.60
2023-03-13T14:33:29.660Z,36.36
2023-03-13T14:35:57.865Z,35.05
2023-03-13T14:38:32.682Z,35.64
2023-03-13T14:41:05.069Z,35.51
2023-03-13T14:43:42.717Z,35.28
2023-03-13T14:46:42.040Z,35.37
2023-03-13T14:49:31.751Z,36.29
2023-03-13T14:51:58.406Z,36.34
2023-03-13T14:54:37.794Z,36.51
2023-03-13T14:57:10.507Z,36.74
2023-03-13T14:59:37.114Z,38.64
2023-03-13T15:02:32.427Z,36.25
2023-03-13T15:05:05.142Z,36.81
2023-03-13T15:07:53.683Z,37.03
2023-03-13T15:13:37.344Z,37.10
2023-03-13T15:16:22.013Z,37.91
2023-03-13T15:18:55.341Z,37.92
2023-03-13T15:21:29.377Z,37.97
2023-03-13T15:23:58.945Z,37.66
2023-03-13T15:26:29.443Z,38.04
2023-03-13T15:28:58.760Z,38.21
2023-03-13T15:31:28.898Z,37.91
2023-03-13T15:33:59.182Z,38.46
2023-03-13T15:36:27.466Z,38.68
2023-03-13T15:38:54.559Z,39.39
2023-03-13T15:41:26.126Z,39.74
2023-03-13T15:43:58.949Z,39.78
2023-03-13T15:46:26.717Z,39.92
2023-03-13T15:48:54.038Z,39.93
2023-03-13T15:51:22.866Z,40.53
2023-03-13T15:53:49.506Z,39.88
2023-03-13T15:56:23.079Z,40.62
2023-03-13T15:59:00.750Z,40.88
2023-03-13T16:01:33.351Z,40.29
2023-03-13T16:04:02.762Z,39.97
2023-03-13T16:06:37.679Z,41.75
2023-03-13T16:09:09.713Z,41.48
2023-03-13T16:11:38.928Z,41.47
2023-03-13T16:14:26.164Z,42.42
2023-03-13T16:17:12.620Z,42.34
2023-03-13T16:19:39.286Z,41.98
2023-03-13T16:22:05.873Z,42.65
2023-03-13T16:24:42.360Z,42.54
2023-03-13T16:27:20.077Z,42.58
2023-03-13T16:29:47.015Z,43.10
2023-03-13T16:32:17.304Z,42.76
2023-03-13T16:38:16.217Z,43.84
2023-03-13T16:40:57.427Z,43.97
2023-03-13T16:43:53.225Z,44.99
2023-03-13T16:47:13.828Z,44.65
2023-03-13T16:53:23.320Z,45.20
2023-03-13T16:55:52.198Z,45.71
2023-03-13T16:59:09.076Z,45.68
2023-03-13T17:01:47.123Z,46.21
2023-03-13T17:04:44.429Z,46.36
2023-03-13T17:07:25.325Z,46.78
2023-03-13T17:09:53.220Z,46.51
2023-03-13T17:12:22.253Z,47.22
2023-03-13T17:14:51.424Z,47.44
2023-03-13T17:17:31.771Z,47.18
2023-03-13T17:20:05.915Z,46.50
2023-03-13T17:22:34.922Z,46.59
2023-03-13T17:25:01.460Z,46.55
2023-03-13T17:27:30.675Z,46.84
2023-03-13T17:29:57.276Z,47.42
2023-03-13T17:32:26.929Z,46.77
2023-03-13T17:35:47.226Z,46.81
2023-03-13T17:38:48.330Z,48.26
2023-03-13T17:41:19.191Z,47.76
2023-03-13T17:43:54.617Z,48.01
2023-03-13T17:46:24.661Z,47.86
2023-03-13T17:49:17.567Z,48.06
2023-03-13T17:55:40.840Z,48.34
2023-03-13T18:05:39.346Z,49.15
2023-03-13T18:08:13.165Z,48.38
2023-03-13T18:10:42.252Z,47.83
2023-03-13T18:13:11.433Z,48.45
2023-03-13T18:15:38.518Z,48.06
2023-03-13T18:18:05.382Z,48.54
2023-03-13T18:21:02.420Z,49.01
2023-03-13T18:23:29.015Z,48.79
2023-03-13T18:26:01.249Z,49.13
2023-03-13T18:28:28.034Z,49.00
2023-03-13T18:30:59.559Z,49.54
2023-03-13T18:33:31.228Z,49.26
2023-03-13T18:36:29.356Z,50.20
2023-03-13T18:39:02.447Z,50.33
2023-03-13T18:41:29.163Z,49.63
2023-03-13T18:43:55.859Z,50.00
2023-03-13T18:46:27.279Z,50.38
2023-03-13T18:48:57.275Z,51.39
2023-03-13T18:51:30.992Z,51.26
2023-03-13T18:54:00.496Z,51.59
2023-03-13T18:56:33.817Z,51.08
2023-03-13T18:59:02.659Z,50.49
2023-03-13T19:01:31.198Z,51.65
2023-03-13T19:04:00.074Z,51.88
2023-03-13T19:06:32.954Z,51.96
2023-03-13T19:09:40.998Z,52.09
2023-03-13T19:12:05.115Z,52.73
2023-03-13T19:14:36.496Z,52.68
2023-03-13T19:17:16.586Z,53.03
2023-03-13T19:19:45.582Z,55.69
2023-03-13T19:22:14.751Z,52.72
2023-03-13T19:24:46.435Z,52.66
2023-03-13T19:27:14.809Z,50.94
2023-03-13T19:29:41.871Z,52.01
2023-03-13T19:32:18.229Z,51.13
2023-03-13T19:34:48.773Z,50.67
2023-03-13T19:37:17.022Z,50.50
2023-03-13T19:39:43.951Z,50.84
2023-03-13T19:42:11.053Z,50.28
2023-03-13T19:44:41.427Z,50.68
2023-03-13T19:47:16.246Z,50.51
2023-03-13T19:49:45.763Z,50.75
2023-03-13T19:52:12.504Z,50.85
2023-03-13T19:54:39.245Z,51.43
2023-03-13T19:57:08.166Z,50.92
2023-03-13T19:59:41.984Z,51.72
2023-03-13T20:02:11.222Z,50.63
2023-03-13T20:04:47.906Z,50.94
2023-03-13T20:07:14.533Z,52.03
2023-03-13T20:09:41.219Z,52.03
2023-03-13T20:12:08.631Z,52.12
2023-03-13T20:14:37.614Z,51.88
2023-03-13T20:17:07.013Z,51.53
2023-03-13T20:19:36.284Z,52.25
2023-03-13T20:22:05.832Z,50.39
2023-03-13T20:24:35.806Z,50.24
2023-03-13T20:27:02.511Z,50.20
2023-03-13T20:29:31.763Z,51.00
2023-03-13T20:32:00.396Z,51.55
2023-03-13T20:34:27.715Z,52.14
2023-03-13T20:36:56.526Z,50.81
2023-03-13T20:39:28.120Z,49.16
2023-03-13T20:41:56.318Z,49.75
2023-03-13T20:44:26.354Z,48.31
2023-03-13T20:46:55.426Z,49.61
2023-03-13T20:49:21.934Z,50.21
2023-03-13T20:51:50.887Z,48.89
2023-03-13T20:54:18.175Z,49.32
2023-03-13T20:56:44.764Z,48.70
2023-03-13T20:59:11.495Z,49.89
2023-03-13T21:01:38.286Z,47.64
2023-03-13T21:04:09.695Z,46.91
2023-03-13T21:06:36.494Z,49.08
2023-03-13T21:09:05.442Z,48.19
2023-03-13T21:11:34.404Z,49.38
2023-03-13T21:14:03.625Z,48.66
2023-03-13T21:16:30.231Z,49.41
2023-03-13T21:18:59.330Z,48.58
2023-03-13T21:21:26.193Z,46.75
2023-03-13T21:23:55.168Z,47.28
2023-03-13T21:26:22.651Z,47.36
2023-03-13T21:28:49.385Z,47.85
2023-03-13T21:31:19.749Z,46.75
2023-03-13T21:33:50.099Z,48.89
2023-03-13T21:36:21.023Z,48.03
2023-03-13T21:38:49.827Z,47.54
2023-03-13T21:41:19.270Z,47.84
2023-03-13T21:43:49.899Z,47.38
2023-03-13T21:46:20.998Z,46.52
2023-03-13T21:48:47.685Z,47.76
2023-03-13T21:51:14.668Z,46.83
2023-03-13T21:53:44.489Z,46.13
2023-03-13T21:56:15.940Z,46.90
2023-03-13T21:58:45.331Z,47.19
2023-03-13T22:01:17.845Z,47.78
2023-03-13T22:03:46.652Z,48.42
2023-03-13T22:06:20.978Z,47.86
2023-03-13T22:08:48.992Z,49.40
2023-03-13T22:11:17.990Z,47.85
2023-03-13T22:13:44.704Z,47.74
2023-03-13T22:16:11.768Z,46.45
2023-03-13T22:18:39.837Z,46.46
2023-03-13T22:21:08.705Z,47.15
2023-03-13T22:23:35.348Z,47.99
2023-03-13T22:26:01.951Z,47.23
2023-03-13T22:28:31.056Z,47.92
2023-03-13T22:31:00.783Z,48.47
2023-03-13T22:33:27.820Z,48.90
2023-03-13T22:35:54.573Z,49.19
2023-03-13T22:38:21.710Z,50.47
2023-03-13T22:40:56.167Z,51.13
2023-03-13T22:43:25.355Z,50.10
2023-03-13T22:45:51.813Z,50.83
2023-03-13T22:48:18.379Z,50.19
2023-03-13T22:50:47.411Z,52.29
2023-03-13T22:53:14.345Z,50.06
2023-03-13T22:55:41.111Z,51.64
2023-03-13T22:58:09.992Z,52.46
2023-03-13T23:00:38.901Z,51.88
2023-03-13T23:03:07.737Z,52.85
2023-03-13T23:05:42.048Z,52.34
2023-03-13T23:08:08.758Z,52.47
2023-03-13T23:10:35.968Z,53.16
2023-03-13T23:13:05.060Z,54.16
2023-03-13T23:15:54.808Z,54.54
2023-03-13T23:18:20.914Z,54.42
2023-03-13T23:20:49.772Z,53.84
2023-03-13T23:23:16.627Z,55.54
2023-03-13T23:25:43.304Z,55.56
2023-03-13T23:28:12.277Z,55.05
2023-03-13T23:30:39.059Z,54.46
2023-03-13T23:33:05.709Z,54.54
2023-03-13T23:35:36.185Z,54.42
2023-03-13T23:38:07.709Z,55.19
2023-03-13T23:40:37.127Z,54.20
2023-03-13T23:43:03.983Z,55.46
2023-03-13T23:45:33.816Z,55.04
2023-03-13T23:48:00.363Z,54.62
2023-03-13T23:50:27.044Z,55.54
2023-03-13T23:52:55.824Z,55.64
2023-03-13T23:55:22.442Z,55.05
2023-03-13T23:57:54.821Z,53.66
